Wetterdaten: Woche 06.12.10 - 12.12.10 (KW49)
Datum Zeit Temp. A. Feuchte A. Luftdruck Regen Wind Richtung Taupunkt Windchill Windben
06.12.2010 00:00 1,3 C 87 % 1001,3 hPa 0,7 l/m 0,0 km/h N-NO -0,6 C 1,3 C 0,0 km/h
06.12.2010 01:00 1,3 C 86 % 1000,7 hPa 0,7 l/m 0,0 km/h O-SO -0,8 C 1,3 C 0,0 km/h
06.12.2010 02:00 1,3 C 86 % 1000,6 hPa 0,7 l/m 0,0 km/h O-SO -0,8 C 1,3 C 0,0 km/h
06.12.2010 03:00 1,2 C 86 % 999,6 hPa 0,7 l/m 0,0 km/h SO -0,9 C 1,2 C 0,0 km/h
06.12.2010 04:00 1,0 C 86 % 998,8 hPa 0,0 l/m 0,0 km/h SO -1,1 C 1,0 C 0,0 km/h
06.12.2010 05:00 0,8 C 86 % 998,1 hPa 0,7 l/m 0,0 km/h SO -1,3 C 0,8 C 0,0 km/h
06.12.2010 06:00 0,9 C 86 % 997,5 hPa 0,7 l/m 0,0 km/h SO -1,2 C 0,9 C 0,0 km/h
06.12.2010 07:00 0,6 C 86 % 996,8 hPa 0,7 l/m 0,0 km/h SO -1,5 C 0,6 C 0,0 km/h
06.12.2010 08:00 0,5 C 86 % 996,9 hPa 1,4 l/m 0,0 km/h SO -1,6 C 0,5 C 0,0 km/h
06.12.2010 09:00 0,5 C 86 % 996,8 hPa 0,0 l/m 0,0 km/h SO -1,6 C 0,5 C 0,0 km/h
06.12.2010 10:00 1,1 C 86 % 996,8 hPa 0,0 l/m 0,0 km/h SO -1,0 C 1,1 C 0,0 km/h
06.12.2010 11:00 1,1 C 86 % 996,4 hPa 1,4 l/m 0,0 km/h SO -1,0 C 1,1 C 0,0 km/h
06.12.2010 12:00 1,2 C 86 % 996,2 hPa 1,5 l/m 1,5 km/h W -0,9 C 1,2 C 0,0 km/h
06.12.2010 13:00 2,1 C 87 % 995,9 hPa 0,0 l/m 0,0 km/h W 0,2 C 2,1 C 0,0 km/h
06.12.2010 14:00 1,3 C 87 % 995,2 hPa 0,7 l/m 0,0 km/h W -0,6 C 1,3 C 0,0 km/h
06.12.2010 15:00 1,0 C 87 % 995,2 hPa 0,7 l/m 0,0 km/h W-NW -0,9 C 1,0 C 0,0 km/h
06.12.2010 16:00 0,8 C 87 % 995,5 hPa 0,7 l/m 0,0 km/h W-NW -1,1 C 0,8 C 0,0 km/h
06.12.2010 17:00 0,5 C 87 % 995,2 hPa 1,1 l/m 0,0 km/h W-NW -1,4 C 0,5 C 0,0 km/h
06.12.2010 18:00 0,4 C 87 % 995,5 hPa 0,4 l/m 0,0 km/h W-NW -1,5 C 0,4 C 0,0 km/h
06.12.2010 19:00 0,3 C 87 % 995,6 hPa 0,0 l/m 0,0 km/h W-NW -1,6 C 0,3 C 0,0 km/h
06.12.2010 20:00 0,3 C 87 % 995,8 hPa 0,0 l/m 0,0 km/h S -1,6 C 0,3 C 0,0 km/h
06.12.2010 21:00 0,5 C 87 % 995,7 hPa 0,0 l/m 0,0 km/h W-SW -1,4 C 0,5 C 0,0 km/h
06.12.2010 22:00 0,4 C 87 % 996,0 hPa 0,7 l/m 0,0 km/h SW -1,5 C 0,4 C 0,0 km/h
06.12.2010 23:00 0,5 C 87 % 995,8 hPa 0,0 l/m 0,0 km/h W -1,4 C 0,5 C 0,0 km/h
07.12.2010 00:00 0,6 C 87 % 996,0 hPa 1,1 l/m 0,0 km/h W -1,3 C 0,6 C 0,0 km/h
07.12.2010 01:00 0,6 C 87 % 995,9 hPa 1,4 l/m 0,0 km/h W-NW -1,3 C 0,6 C 0,0 km/h
07.12.2010 02:00 0,8 C 87 % 996,5 hPa 0,4 l/m 0,0 km/h N-NO -1,1 C 0,8 C 0,0 km/h
07.12.2010 03:00 1,0 C 87 % 997,0 hPa 0,0 l/m 0,0 km/h N-NW -0,9 C 1,0 C 0,0 km/h
07.12.2010 04:00 1,3 C 87 % 997,5 hPa 0,0 l/m 0,0 km/h O -0,6 C 1,3 C 0,0 km/h
07.12.2010 05:00 1,7 C 87 % 997,4 hPa 0,7 l/m 0,0 km/h S-SO -0,2 C 1,7 C 0,0 km/h
07.12.2010 06:00 1,4 C 87 % 998,2 hPa 0,0 l/m 0,0 km/h N-NO -0,5 C 1,4 C 0,0 km/h
07.12.2010 07:00 1,8 C 87 % 998,6 hPa 0,0 l/m 0,0 km/h N-NW -0,1 C 1,8 C 0,0 km/h
07.12.2010 08:00 1,5 C 87 % 999,3 hPa 0,0 l/m 0,0 km/h NW -0,4 C 1,5 C 0,0 km/h
07.12.2010 09:00 2,1 C 87 % 999,5 hPa 0,0 l/m 0,0 km/h W-NW 0,2 C 2,1 C 0,0 km/h
07.12.2010 10:00 4,5 C 87 % 999,7 hPa 0,0 l/m 0,0 km/h W 2,5 C 4,5 C 0,0 km/h
07.12.2010 11:00 3,6 C 88 % 999,7 hPa 0,0 l/m 0,0 km/h W-NW 1,8 C 3,6 C 0,0 km/h
07.12.2010 12:00 3,6 C 88 % 999,7 hPa 0,0 l/m 0,0 km/h W 1,8 C 3,6 C 0,0 km/h
07.12.2010 13:00 3,4 C 89 % 999,2 hPa 0,0 l/m 0,0 km/h S-SW 1,8 C 3,4 C 0,0 km/h
07.12.2010 14:00 2,9 C 88 % 999,1 hPa 0,7 l/m 0,0 km/h NW 1,1 C 2,9 C 0,0 km/h
07.12.2010 15:00 2,9 C 88 % 998,7 hPa 0,7 l/m 0,0 km/h W 1,1 C 2,9 C 0,0 km/h
07.12.2010 16:00 2,4 C 87 % 998,2 hPa 0,7 l/m 0,0 km/h W-NW 0,5 C 2,4 C 0,0 km/h
07.12.2010 17:00 2,1 C 87 % 998,7 hPa 0,0 l/m 0,0 km/h W 0,2 C 2,1 C 0,0 km/h
07.12.2010 18:00 1,8 C 87 % 999,0 hPa 0,0 l/m 0,0 km/h SO -0,1 C 1,8 C 0,0 km/h
07.12.2010 19:00 2,2 C 87 % 999,0 hPa 0,4 l/m 0,0 km/h O-SO 0,3 C 2,2 C 0,0 km/h
07.12.2010 20:00 2,6 C 86 % 999,7 hPa 0,0 l/m 0,0 km/h N-NW 0,5 C 2,6 C 0,0 km/h
07.12.2010 21:00 2,7 C 86 % 1000,1 hPa 1,1 l/m 0,0 km/h W 0,6 C 2,7 C 0,0 km/h
07.12.2010 22:00 2,7 C 86 % 1000,5 hPa 0,7 l/m 0,0 km/h NW 0,6 C 2,7 C 0,0 km/h
07.12.2010 23:00 2,9 C 87 % 1000,4 hPa 1,4 l/m 0,0 km/h S-SO 1,0 C 2,9 C 0,0 km/h
08.12.2010 00:00 3,0 C 87 % 1000,0 hPa 0,0 l/m 0,0 km/h S-SO 1,1 C 3,0 C 0,0 km/h
08.12.2010 01:00 2,9 C 86 % 1000,6 hPa 0,0 l/m 0,0 km/h NO 0,8 C 2,9 C 0,0 km/h
08.12.2010 02:00 2,2 C 87 % 1000,6 hPa 0,0 l/m 0,0 km/h W-NW 0,3 C 2,2 C 0,0 km/h
08.12.2010 03:00 1,6 C 87 % 1000,0 hPa 0,0 l/m 0,0 km/h NW -0,3 C 1,6 C 0,0 km/h
08.12.2010 04:00 2,3 C 87 % 1000,2 hPa 0,0 l/m 0,0 km/h NO 0,4 C 2,3 C 0,0 km/h
08.12.2010 05:00 2,6 C 87 % 1000,0 hPa 0,7 l/m 0,0 km/h NO 0,7 C 2,6 C 0,0 km/h
08.12.2010 06:00 3,3 C 87 % 999,5 hPa 0,0 l/m 0,0 km/h N 1,3 C 3,3 C 0,0 km/h
08.12.2010 07:00 3,4 C 87 % 999,2 hPa 0,0 l/m 0,0 km/h W-NW 1,4 C 3,4 C 0,0 km/h
08.12.2010 08:00 3,0 C 87 % 999,3 hPa 0,0 l/m 0,0 km/h S-SO 1,1 C 3,0 C 0,0 km/h
08.12.2010 09:00 3,6 C 87 % 999,2 hPa 0,0 l/m 0,0 km/h SW 1,6 C 3,6 C 0,0 km/h
08.12.2010 10:00 5,0 C 86 % 999,7 hPa 0,0 l/m 0,0 km/h O-NO 2,9 C 5,0 C 0,0 km/h
08.12.2010 11:00 6,1 C 87 % 999,7 hPa 0,0 l/m 0,0 km/h NO 4,1 C 6,1 C 0,0 km/h
08.12.2010 12:00 7,7 C 86 % 999,6 hPa 0,0 l/m 0,0 km/h S-SW 5,5 C 7,7 C 0,0 km/h
08.12.2010 13:00 11,9 C 89 % 999,1 hPa 0,0 l/m 0,0 km/h N-NO 10,1 C 11,9 C 0,0 km/h
08.12.2010 14:00 9,8 C 89 % 998,6 hPa 0,0 l/m 0,0 km/h NO 8,1 C 9,8 C 0,0 km/h
08.12.2010 15:00 9,8 C 87 % 998,2 hPa 0,0 l/m 0,0 km/h N 7,7 C 9,8 C 0,0 km/h
08.12.2010 16:00 8,5 C 88 % 998,2 hPa 0,4 l/m 0,0 km/h NW 6,6 C 8,5 C 0,0 km/h
08.12.2010 17:00 7,1 C 88 % 997,5 hPa 0,0 l/m 0,0 km/h W-SW 5,2 C 7,1 C 0,0 km/h
08.12.2010 18:00 8,1 C 86 % 998,3 hPa 0,0 l/m 0,0 km/h SW 5,9 C 8,1 C 0,0 km/h
08.12.2010 19:00 12,9 C 85 % 998,1 hPa 0,4 l/m 33,0 km/h NW 10,4 C 4,2 C 18,4 km/h
08.12.2010 20:00 6,3 C 87 % 999,8 hPa 0,0 l/m 2,6 km/h NW 4,3 C 6,3 C 1,4 km/h
08.12.2010 21:00 3,4 C 89 % 1003,5 hPa 1,1 l/m 1,9 km/h NO 1,8 C 3,4 C 1,1 km/h
08.12.2010 22:00 2,5 C 89 % 1006,8 hPa 0,4 l/m 0,0 km/h N-NO 0,9 C 2,5 C 0,0 km/h
08.12.2010 23:00 1,8 C 89 % 1008,7 hPa 0,0 l/m 0,6 km/h N-NO 0,2 C 1,8 C 0,4 km/h
09.12.2010 00:00 0,9 C 89 % 1010,5 hPa 0,4 l/m 0,0 km/h N-NO -0,7 C 0,9 C 0,0 km/h
09.12.2010 01:00 0,5 C 89 % 1012,6 hPa 0,0 l/m 5,8 km/h N-NW -1,1 C 0,5 C 3,2 km/h
09.12.2010 02:00 0,3 C 89 % 1013,9 hPa 0,0 l/m 0,0 km/h NW -1,3 C 0,3 C 0,0 km/h
09.12.2010 03:00 0,3 C 89 % 1015,2 hPa 0,0 l/m 0,0 km/h N -1,3 C 0,3 C 0,0 km/h
09.12.2010 04:00 0,2 C 89 % 1017,2 hPa 0,0 l/m 0,0 km/h N -1,4 C 0,2 C 0,0 km/h
09.12.2010 05:00 -0,9 C 89 % 1018,7 hPa 0,0 l/m 0,0 km/h N -2,5 C -0,9 C 0,0 km/h
09.12.2010 06:00 -2,2 C 89 % 1020,1 hPa 0,0 l/m 0,0 km/h N -3,8 C -2,2 C 0,0 km/h
09.12.2010 07:00 -1,1 C 89 % 1021,8 hPa 0,0 l/m 0,0 km/h N -2,7 C -1,1 C 0,0 km/h
09.12.2010 08:00 -0,8 C 88 % 1022,4 hPa 0,0 l/m 0,0 km/h N -2,5 C -0,8 C 0,0 km/h
09.12.2010 09:00 0,1 C 88 % 1023,1 hPa 0,0 l/m 0,0 km/h N -1,6 C 0,1 C 0,0 km/h
09.12.2010 10:00 0,9 C 88 % 1023,6 hPa 0,0 l/m 0,0 km/h W-NW -0,9 C 0,9 C 0,0 km/h
09.12.2010 11:00 0,9 C 88 % 1023,8 hPa 0,0 l/m 0,0 km/h W-NW -0,9 C 0,9 C 0,0 km/h
09.12.2010 12:00 0,8 C 89 % 1024,1 hPa 0,0 l/m 0,0 km/h W -0,8 C 0,8 C 0,0 km/h
09.12.2010 13:00 0,9 C 89 % 1024,3 hPa 0,0 l/m 3,2 km/h SW -0,7 C 0,9 C 1,8 km/h
09.12.2010 14:00 1,0 C 89 % 1024,4 hPa 0,4 l/m 16,8 km/h W -0,6 C -6,8 C 9,4 km/h
09.12.2010 15:00 1,3 C 89 % 1024,8 hPa 0,0 l/m 13,6 km/h W-SW -0,3 C -4,6 C 7,6 km/h
09.12.2010 16:00 1,1 C 89 % 1025,4 hPa 0,4 l/m 17,5 km/h SW -0,5 C -7,0 C 9,7 km/h
09.12.2010 17:00 0,9 C 89 % 1026,3 hPa 0,0 l/m 6,5 km/h W-SW -0,7 C 0,8 C 3,6 km/h
09.12.2010 18:00 0,8 C 89 % 1027,2 hPa 0,0 l/m 18,1 km/h SW -0,8 C -7,7 C 10,1 km/h
09.12.2010 19:00 0,5 C 89 % 1027,7 hPa 0,0 l/m 13,0 km/h W-SW -1,1 C -5,1 C 7,2 km/h
09.12.2010 20:00 0,4 C 89 % 1028,3 hPa 0,0 l/m 7,8 km/h W -1,2 C -1,0 C 4,3 km/h
09.12.2010 21:00 0,4 C 89 % 1028,7 hPa 0,0 l/m 5,2 km/h S -1,2 C 0,4 C 2,9 km/h
09.12.2010 22:00 0,5 C 89 % 1028,9 hPa 0,0 l/m 3,2 km/h W-SW -1,1 C 0,5 C 1,8 km/h
09.12.2010 23:00 0,6 C 88 % 1029,0 hPa 0,0 l/m 9,7 km/h S -1,2 C -2,5 C 5,4 km/h
10.12.2010 00:00 0,8 C 87 % 1028,7 hPa 0,0 l/m 9,7 km/h S -1,1 C -2,3 C 5,4 km/h
10.12.2010 01:00 0,6 C 86 % 1028,6 hPa 0,0 l/m 1,3 km/h W-SW -1,5 C 0,6 C 0,7 km/h
10.12.2010 02:00 0,4 C 87 % 1028,8 hPa 0,0 l/m 6,5 km/h W-SW -1,5 C 0,3 C 3,6 km/h
10.12.2010 03:00 0,4 C 87 % 1028,5 hPa 0,0 l/m 21,4 km/h W-SW -1,5 C -9,7 C 11,9 km/h
10.12.2010 04:00 0,4 C 87 % 1028,0 hPa 0,0 l/m 19,4 km/h W-SW -1,5 C -8,8 C 10,8 km/h
10.12.2010 05:00 0,5 C 86 % 1027,8 hPa 0,0 l/m 22,0 km/h W-SW -1,6 C -9,9 C 12,2 km/h
10.12.2010 06:00 0,7 C 85 % 1028,4 hPa 0,0 l/m 9,7 km/h W-SW -1,5 C -2,4 C 5,4 km/h
10.12.2010 07:00 0,7 C 85 % 1028,6 hPa 0,0 l/m 19,4 km/h W-SW -1,5 C -8,4 C 10,8 km/h
10.12.2010 08:00 0,1 C 89 % 1029,5 hPa 0,0 l/m 4,5 km/h W-SW -1,5 C 0,1 C 2,5 km/h
10.12.2010 09:00 0,2 C 89 % 1030,1 hPa 0,0 l/m 0,0 km/h S-SW -1,4 C 0,2 C 0,0 km/h
10.12.2010 10:00 0,4 C 89 % 1030,3 hPa 0,0 l/m 0,0 km/h W-SW -1,2 C 0,4 C 0,0 km/h
10.12.2010 11:00 0,6 C 89 % 1029,9 hPa 0,0 l/m 0,0 km/h W-SW -1,0 C 0,6 C 0,0 km/h
10.12.2010 12:00 0,7 C 89 % 1030,3 hPa 0,0 l/m 0,0 km/h SW -0,9 C 0,7 C 0,0 km/h
10.12.2010 13:00 1,2 C 87 % 1030,1 hPa 0,0 l/m 0,0 km/h SW -0,7 C 1,2 C 0,0 km/h
10.12.2010 14:00 1,3 C 87 % 1030,3 hPa 0,0 l/m 1,9 km/h W-SW -0,6 C 1,3 C 1,1 km/h
10.12.2010 15:00 1,3 C 87 % 1030,5 hPa 0,0 l/m 0,0 km/h W-SW -0,6 C 1,3 C 0,0 km/h
10.12.2010 16:00 1,1 C 87 % 1030,3 hPa 0,4 l/m 7,8 km/h SW -0,8 C -0,3 C 4,3 km/h
10.12.2010 17:00 1,3 C 87 % 1030,2 hPa 0,0 l/m 2,6 km/h W-SW -0,6 C 1,3 C 1,4 km/h
10.12.2010 18:00 1,2 C 88 % 1030,1 hPa 0,0 l/m 0,0 km/h S -0,6 C 1,2 C 0,0 km/h
10.12.2010 19:00 0,8 C 89 % 1030,0 hPa 0,4 l/m 0,0 km/h NO -0,8 C 0,8 C 0,0 km/h
10.12.2010 20:00 1,0 C 89 % 1030,0 hPa 0,0 l/m 0,0 km/h O-SO -0,6 C 1,0 C 0,0 km/h
10.12.2010 21:00 0,8 C 89 % 1029,4 hPa 0,0 l/m 0,0 km/h W-SW -0,8 C 0,8 C 0,0 km/h
10.12.2010 22:00 1,2 C 89 % 1028,3 hPa 0,0 l/m 7,1 km/h W-SW -0,4 C 0,5 C 4,0 km/h
10.12.2010 23:00 1,6 C 89 % 1028,2 hPa 0,0 l/m 3,9 km/h S-SW -0,0 C 1,6 C 2,2 km/h
11.12.2010 00:00 1,9 C 89 % 1027,2 hPa 0,4 l/m 1,3 km/h S-SW 0,3 C 1,9 C 0,7 km/h
11.12.2010 01:00 2,3 C 88 % 1026,8 hPa 0,0 l/m 22,0 km/h SW 0,5 C -7,5 C 12,2 km/h
11.12.2010 02:00 2,3 C 88 % 1026,0 hPa 0,4 l/m 20,7 km/h W-SW 0,5 C -7,0 C 11,5 km/h
11.12.2010 03:00 2,4 C 88 % 1025,6 hPa 0,0 l/m 14,9 km/h SW 0,6 C -4,0 C 8,3 km/h
11.12.2010 04:00 2,6 C 88 % 1025,0 hPa 0,0 l/m 24,0 km/h W-SW 0,8 C -7,8 C 13,3 km/h
11.12.2010 05:00 2,8 C 89 % 1024,8 hPa 0,0 l/m 39,5 km/h SW 1,2 C -11,7 C 22,0 km/h
11.12.2010 06:00 2,9 C 89 % 1024,6 hPa 0,0 l/m 24,0 km/h S-SW 1,3 C -7,4 C 13,3 km/h
11.12.2010 07:00 3,5 C 87 % 1024,3 hPa 0,0 l/m 22,7 km/h W-SW 1,5 C -6,2 C 12,6 km/h
11.12.2010 08:00 3,6 C 86 % 1024,0 hPa 0,0 l/m 21,4 km/h SW 1,5 C -5,5 C 11,9 km/h
11.12.2010 09:00 3,8 C 86 % 1024,3 hPa 0,0 l/m 22,0 km/h W 1,7 C -5,5 C 12,2 km/h
11.12.2010 10:00 4,0 C 86 % 1024,0 hPa 0,0 l/m 22,7 km/h SW 1,9 C -5,5 C 12,6 km/h
11.12.2010 11:00 4,3 C 85 % 1024,1 hPa 0,0 l/m 21,4 km/h SW 2,0 C -4,6 C 11,9 km/h
11.12.2010 12:00 4,3 C 86 % 1023,8 hPa 0,0 l/m 30,5 km/h W 2,2 C -7,5 C 16,9 km/h
11.12.2010 13:00 4,5 C 85 % 1022,5 hPa 0,0 l/m 16,8 km/h W-SW 2,2 C -2,4 C 9,4 km/h
11.12.2010 14:00 4,4 C 86 % 1022,1 hPa 0,0 l/m 23,3 km/h W-SW 2,3 C -5,2 C 13,0 km/h
11.12.2010 15:00 4,4 C 86 % 1021,8 hPa 0,0 l/m 18,8 km/h W-SW 2,3 C -3,4 C 10,4 km/h
11.12.2010 16:00 4,2 C 87 % 1021,9 hPa 0,0 l/m 25,3 km/h W-SW 2,2 C -6,1 C 14,0 km/h
11.12.2010 17:00 4,1 C 88 % 1021,5 hPa 0,0 l/m 18,8 km/h W-SW 2,3 C -3,8 C 10,4 km/h
11.12.2010 18:00 3,9 C 88 % 1021,3 hPa 0,0 l/m 1,9 km/h W-SW 2,1 C 3,9 C 1,1 km/h
11.12.2010 19:00 3,8 C 88 % 1020,8 hPa 0,0 l/m 1,3 km/h S-SW 2,0 C 3,8 C 0,7 km/h
11.12.2010 20:00 3,8 C 88 % 1020,1 hPa 0,0 l/m 0,6 km/h SW 2,0 C 3,8 C 0,4 km/h
11.12.2010 21:00 3,8 C 88 % 1019,8 hPa 0,0 l/m 11,7 km/h W 2,0 C -0,4 C 6,5 km/h
11.12.2010 22:00 3,6 C 88 % 1018,9 hPa 0,0 l/m 0,0 km/h W-NW 1,8 C 3,6 C 0,0 km/h
11.12.2010 23:00 3,4 C 88 % 1018,4 hPa 0,0 l/m 0,0 km/h W 1,6 C 3,4 C 0,0 km/h
12.12.2010 00:00 3,3 C 88 % 1018,0 hPa 0,0 l/m 1,9 km/h W 1,5 C 3,3 C 1,1 km/h
12.12.2010 01:00 3,1 C 88 % 1017,5 hPa 0,0 l/m 0,0 km/h W 1,3 C 3,1 C 0,0 km/h
12.12.2010 02:00 2,8 C 89 % 1016,9 hPa 0,0 l/m 0,0 km/h N-NO 1,2 C 2,8 C 0,0 km/h
12.12.2010 03:00 2,6 C 88 % 1017,2 hPa 0,0 l/m 0,0 km/h N-NO 0,8 C 2,6 C 0,0 km/h
12.12.2010 04:00 2,5 C 88 % 1016,5 hPa 0,4 l/m 0,0 km/h S-SO 0,7 C 2,5 C 0,0 km/h
12.12.2010 05:00 2,3 C 88 % 1015,9 hPa 0,0 l/m 0,0 km/h S-SW 0,5 C 2,3 C 0,0 km/h
12.12.2010 06:00 2,6 C 89 % 1015,4 hPa 0,0 l/m 5,2 km/h N 1,0 C 2,6 C 2,9 km/h
12.12.2010 07:00 2,3 C 89 % 1015,1 hPa 0,0 l/m 0,0 km/h W-NW 0,7 C 2,3 C 0,0 km/h
12.12.2010 08:00 2,6 C 89 % 1015,7 hPa 0,0 l/m 0,0 km/h SW 1,0 C 2,6 C 0,0 km/h
12.12.2010 09:00 3,0 C 89 % 1015,5 hPa 0,0 l/m 0,0 km/h S-SW 1,4 C 3,0 C 0,0 km/h
12.12.2010 10:00 3,3 C 89 % 1015,4 hPa 0,0 l/m 0,0 km/h N-NW 1,7 C 3,3 C 0,0 km/h
12.12.2010 11:00 3,4 C 88 % 1014,7 hPa 0,0 l/m 0,0 km/h W-NW 1,6 C 3,4 C 0,0 km/h
12.12.2010 12:00 3,1 C 89 % 1014,9 hPa 0,7 l/m 0,0 km/h S-SO 1,5 C 3,1 C 0,0 km/h
12.12.2010 13:00 6,8 C 85 % 1014,4 hPa 0,0 l/m 0,0 km/h S 4,5 C 6,8 C 0,0 km/h
12.12.2010 14:00 4,8 C 86 % 1014,2 hPa 0,0 l/m 2,6 km/h SO 2,7 C 4,8 C 1,4 km/h
12.12.2010 15:00 3,6 C 88 % 1014,1 hPa 0,0 l/m 0,0 km/h SO 1,8 C 3,6 C 0,0 km/h
12.12.2010 16:00 3,1 C 89 % 1014,6 hPa 0,4 l/m 0,0 km/h SO 1,5 C 3,1 C 0,0 km/h
12.12.2010 17:00 2,8 C 89 % 1014,4 hPa 0,0 l/m 0,0 km/h O-NO 1,2 C 2,8 C 0,0 km/h
12.12.2010 18:00 2,6 C 88 % 1014,6 hPa 0,4 l/m 0,0 km/h SO 0,8 C 2,6 C 0,0 km/h
12.12.2010 19:00 2,5 C 88 % 1014,8 hPa 0,4 l/m 0,0 km/h SO 0,7 C 2,5 C 0,0 km/h
12.12.2010 20:00 2,4 C 88 % 1014,7 hPa 0,4 l/m 0,0 km/h SO 0,6 C 2,4 C 0,0 km/h
12.12.2010 21:00 2,2 C 88 % 1014,9 hPa 0,4 l/m 0,0 km/h SO 0,4 C 2,2 C 0,0 km/h
12.12.2010 22:00 1,9 C 88 % 1014,8 hPa 0,0 l/m 0,0 km/h S-SO 0,1 C 1,9 C 0,0 km/h
12.12.2010 23:00 1,8 C 88 % 1014,9 hPa 0,4 l/m 0,0 km/h NW 0,0 C 1,8 C 0,0 km/h
Min-Datum _ 09.12.10 08.12.10 06.12.10 - 06.12.10 - 09.12.10 11.12.10 06.12.10
_ Min-Zeit 06:30 19:30 14:30 - 00:30 - 06:30 05:30 00:30
Minimum _ -2,2 C 85 % 995,2 hPa - 0,0 km/h - -3,8 C -11,7 C 0,0 km/h
Max-Datum _ 08.12.10 07.12.10 10.12.10 06.12.10 11.12.10 - 08.12.10 08.12.10 11.12.10
_ Max-Zeit 19:30 13:30 15:30 12:30 05:30 - 19:30 13:30 05:30
Maximum _ 12,9 C 89 % 1030,5 hPa 1,5 l/m 39,5 km/h
SW
- 10,4 C 11,9 C 22,0 km/h
SW
Durchschnitt _ 2,3 C 88 % 1012,3 hPa #31,4 l/m 4,2 km/h W-SW 0,4 C 0,7 C 2,4 km/h